createdAt,value
2018-07-31T00:00:15.580Z,3.30
2018-07-31T00:01:15.904Z,3.10
2018-07-31T00:02:15.623Z,3.00
2018-07-31T00:03:15.641Z,3.20
2018-07-31T00:04:15.661Z,2.60
2018-07-31T00:05:15.685Z,2.70
2018-07-31T00:06:15.711Z,2.80
2018-07-31T00:07:15.722Z,3.30
2018-07-31T00:08:15.750Z,2.90
2018-07-31T00:09:15.762Z,2.80
2018-07-31T00:10:15.782Z,3.20
2018-07-31T00:11:15.803Z,3.10
2018-07-31T00:12:15.861Z,3.00
2018-07-31T00:13:16.100Z,3.20
2018-07-31T00:14:15.902Z,2.80
2018-07-31T00:15:16.316Z,2.80
2018-07-31T00:16:15.908Z,3.20
2018-07-31T00:17:15.935Z,3.00
2018-07-31T00:18:15.944Z,2.90
2018-07-31T00:19:15.962Z,3.00
2018-07-31T00:20:15.992Z,2.40
2018-07-31T00:21:16.002Z,2.70
2018-07-31T00:22:16.037Z,2.90
2018-07-31T00:23:16.044Z,2.70
2018-07-31T00:24:16.092Z,3.30
2018-07-31T00:25:16.090Z,3.40
2018-07-31T00:26:16.120Z,3.10
2018-07-31T00:27:16.126Z,2.80
2018-07-31T00:28:16.143Z,3.10
2018-07-31T00:29:16.162Z,2.80
2018-07-31T00:30:16.181Z,3.10
2018-07-31T00:31:16.204Z,2.80
2018-07-31T00:32:16.231Z,2.90
2018-07-31T00:33:16.244Z,3.10
2018-07-31T00:34:16.268Z,2.80
2018-07-31T00:35:16.285Z,3.00
2018-07-31T00:36:16.301Z,2.90
2018-07-31T00:37:16.321Z,3.00
2018-07-31T00:38:16.347Z,3.00
2018-07-31T00:39:16.419Z,3.00
2018-07-31T00:40:16.440Z,2.70
2018-07-31T00:41:16.401Z,2.80
2018-07-31T00:42:16.476Z,2.80
2018-07-31T00:43:16.490Z,3.20
2018-07-31T00:44:16.516Z,2.90
2018-07-31T00:45:16.561Z,3.10
2018-07-31T00:46:16.644Z,2.80
2018-07-31T00:47:16.572Z,3.20
2018-07-31T00:48:16.638Z,3.20
2018-07-31T00:49:16.675Z,3.00
2018-07-31T00:50:16.596Z,3.10
2018-07-31T00:51:16.597Z,2.80
2018-07-31T00:52:16.618Z,3.40
2018-07-31T00:53:16.689Z,3.30
2018-07-31T00:54:16.702Z,3.30
2018-07-31T00:55:16.678Z,3.00
2018-07-31T00:56:16.702Z,3.10
2018-07-31T00:57:16.707Z,2.80
2018-07-31T00:58:16.732Z,3.30
2018-07-31T00:59:16.748Z,3.10
2018-07-31T01:00:16.768Z,3.60
2018-07-31T01:01:16.788Z,3.20
2018-07-31T01:02:16.812Z,3.40
2018-07-31T01:03:16.826Z,2.70
2018-07-31T01:04:16.845Z,3.40
2018-07-31T01:05:16.866Z,3.20
2018-07-31T01:06:16.885Z,2.90
2018-07-31T01:07:16.907Z,3.40
2018-07-31T01:08:16.924Z,3.30
2018-07-31T01:09:16.943Z,3.40
2018-07-31T01:10:16.963Z,3.20
2018-07-31T01:11:16.989Z,2.90
2018-07-31T01:12:17.005Z,3.10
2018-07-31T01:13:17.021Z,2.70
2018-07-31T01:14:17.041Z,3.50
2018-07-31T01:15:17.066Z,3.20
2018-07-31T01:16:17.129Z,2.70
2018-07-31T01:17:17.139Z,3.70
2018-07-31T01:18:17.118Z,3.30
2018-07-31T01:19:17.137Z,3.20
2018-07-31T01:20:17.159Z,3.10
2018-07-31T01:21:17.190Z,3.20
2018-07-31T01:22:17.296Z,3.80
2018-07-31T01:23:17.271Z,3.00
2018-07-31T01:25:17.257Z,3.70
2018-07-31T01:26:17.273Z,3.20
2018-07-31T01:27:17.313Z,3.80
2018-07-31T01:28:17.348Z,3.80
2018-07-31T01:29:17.333Z,4.20
2018-07-31T01:30:17.350Z,3.50
2018-07-31T01:31:17.370Z,3.50
2018-07-31T01:32:17.389Z,3.70
2018-07-31T01:33:17.409Z,4.00
2018-07-31T01:34:17.427Z,3.80
2018-07-31T01:35:17.454Z,4.10
2018-07-31T01:36:17.467Z,3.90
2018-07-31T01:37:17.486Z,4.20
2018-07-31T01:38:17.558Z,4.40
2018-07-31T01:39:17.528Z,4.00
2018-07-31T01:40:17.546Z,4.50
2018-07-31T01:41:17.563Z,4.50
2018-07-31T01:42:17.581Z,4.40
2018-07-31T01:43:17.631Z,4.80
2018-07-31T01:44:17.662Z,4.40
2018-07-31T01:45:17.707Z,4.60
2018-07-31T01:46:17.764Z,4.70
2018-07-31T01:47:17.892Z,5.00
2018-07-31T01:48:17.788Z,5.10
2018-07-31T01:49:18.163Z,5.50
2018-07-31T01:50:17.735Z,4.70
2018-07-31T01:51:17.755Z,4.60
2018-07-31T01:52:17.777Z,4.90
2018-07-31T01:53:17.810Z,5.40
2018-07-31T01:54:17.812Z,5.50
2018-07-31T01:55:17.832Z,4.80
2018-07-31T01:56:17.853Z,5.00
2018-07-31T01:57:17.888Z,5.70
2018-07-31T01:58:17.913Z,5.70
2018-07-31T01:59:17.939Z,6.10
2018-07-31T02:00:17.932Z,6.80
2018-07-31T02:01:17.982Z,5.70
2018-07-31T02:02:17.964Z,6.60
2018-07-31T02:03:17.984Z,6.40
2018-07-31T02:04:18.002Z,6.80
2018-07-31T02:05:18.020Z,6.20
2018-07-31T02:06:18.093Z,6.30
2018-07-31T02:07:18.060Z,6.10
2018-07-31T02:08:18.078Z,6.90
2018-07-31T02:09:18.109Z,7.00
2018-07-31T02:10:18.116Z,6.80
2018-07-31T02:11:18.137Z,7.30
2018-07-31T02:12:18.154Z,7.10
2018-07-31T02:13:18.176Z,6.90
2018-07-31T02:14:18.192Z,7.00
2018-07-31T02:15:18.216Z,8.10
2018-07-31T02:16:18.229Z,7.80
2018-07-31T02:17:18.310Z,7.50
2018-07-31T02:18:18.336Z,7.60
2018-07-31T02:19:18.352Z,6.90
2018-07-31T02:20:18.330Z,7.30
2018-07-31T02:21:18.359Z,7.00
2018-07-31T02:22:18.356Z,7.70
2018-07-31T02:23:18.385Z,7.40
2018-07-31T02:24:18.383Z,8.40
2018-07-31T02:25:18.415Z,7.30
2018-07-31T02:26:18.429Z,8.10
2018-07-31T02:27:18.436Z,7.30
2018-07-31T02:28:18.621Z,7.20
2018-07-31T02:29:18.480Z,8.00
2018-07-31T02:30:18.622Z,7.50
2018-07-31T02:31:18.553Z,8.10
2018-07-31T02:32:18.535Z,8.20
2018-07-31T02:33:18.656Z,8.30
2018-07-31T02:34:19.104Z,8.10
2018-07-31T02:35:18.637Z,7.90
2018-07-31T02:36:18.607Z,7.90
2018-07-31T02:37:18.625Z,8.20
2018-07-31T02:38:18.646Z,8.20
2018-07-31T02:39:18.662Z,8.70
2018-07-31T02:40:18.687Z,9.10
2018-07-31T02:41:18.700Z,8.80
2018-07-31T02:42:18.721Z,9.20
2018-07-31T02:43:18.739Z,8.50
2018-07-31T02:44:18.759Z,9.00
2018-07-31T02:45:18.776Z,8.30
2018-07-31T02:46:18.801Z,8.20
2018-07-31T02:47:18.813Z,9.30
2018-07-31T02:48:18.832Z,10.40
2018-07-31T02:49:18.860Z,10.10
2018-07-31T02:50:18.887Z,10.10
2018-07-31T02:51:18.897Z,9.50
2018-07-31T02:52:18.909Z,10.50
2018-07-31T02:53:18.930Z,10.80
2018-07-31T02:54:19.005Z,10.40
2018-07-31T02:55:19.112Z,10.50
2018-07-31T02:56:19.124Z,10.80
2018-07-31T02:57:19.009Z,10.40
2018-07-31T02:58:19.072Z,11.00
2018-07-31T02:59:19.039Z,12.30
2018-07-31T03:00:19.066Z,12.00
2018-07-31T03:01:19.079Z,12.00
2018-07-31T03:02:19.109Z,12.40
2018-07-31T03:03:19.114Z,12.90
2018-07-31T03:04:19.134Z,12.00
2018-07-31T03:05:19.183Z,12.60
2018-07-31T03:06:19.412Z,12.90
2018-07-31T03:07:19.198Z,13.70
2018-07-31T03:08:19.271Z,13.10
2018-07-31T03:09:19.240Z,12.70
2018-07-31T03:10:19.245Z,12.70
2018-07-31T03:11:19.264Z,14.20
2018-07-31T03:12:19.283Z,13.80
2018-07-31T03:13:19.299Z,14.10
2018-07-31T03:14:19.321Z,14.30
2018-07-31T03:15:19.342Z,14.20
2018-07-31T03:16:19.383Z,14.20
2018-07-31T03:17:19.376Z,14.50
2018-07-31T03:18:19.394Z,14.40
2018-07-31T03:19:19.415Z,14.40
2018-07-31T03:20:19.433Z,15.00
2018-07-31T03:21:19.450Z,15.70
2018-07-31T03:22:19.469Z,15.90
2018-07-31T03:23:19.490Z,15.50
2018-07-31T03:24:19.513Z,15.60
2018-07-31T03:25:19.524Z,16.00
2018-07-31T03:26:19.555Z,15.60
2018-07-31T03:27:19.567Z,16.30
2018-07-31T03:28:19.749Z,16.20
2018-07-31T03:29:19.726Z,16.60
2018-07-31T03:30:19.981Z,15.80
2018-07-31T03:31:19.702Z,16.40
2018-07-31T03:32:19.653Z,16.50
2018-07-31T03:33:19.672Z,16.20
2018-07-31T03:34:19.688Z,16.10
2018-07-31T03:35:19.716Z,16.10
2018-07-31T03:36:19.726Z,16.00
2018-07-31T03:37:19.745Z,16.40
2018-07-31T03:38:19.773Z,16.30
2018-07-31T03:39:19.847Z,16.60
2018-07-31T03:40:19.924Z,15.70
2018-07-31T03:41:19.820Z,15.60
2018-07-31T03:42:19.837Z,16.30
2018-07-31T03:43:19.856Z,16.40
2018-07-31T03:44:19.879Z,16.60
2018-07-31T03:45:19.894Z,16.20
2018-07-31T03:46:19.915Z,16.30
2018-07-31T03:47:19.929Z,16.40
2018-07-31T03:48:19.956Z,16.70
2018-07-31T03:49:19.966Z,16.00
2018-07-31T03:50:19.985Z,16.70
2018-07-31T03:51:20.003Z,16.40
2018-07-31T03:52:20.022Z,16.40
2018-07-31T03:53:20.042Z,16.70
2018-07-31T03:54:20.067Z,16.50
2018-07-31T03:55:20.079Z,16.10
2018-07-31T03:56:20.172Z,16.60
2018-07-31T03:57:20.120Z,15.80
2018-07-31T03:58:20.132Z,16.90
2018-07-31T03:59:20.155Z,16.80
2018-07-31T04:00:20.223Z,17.20
2018-07-31T04:01:20.400Z,16.40
2018-07-31T04:02:20.277Z,17.20
2018-07-31T04:03:20.223Z,15.80
2018-07-31T04:04:20.253Z,15.80
2018-07-31T04:05:20.290Z,16.40
2018-07-31T04:06:20.277Z,16.40
2018-07-31T04:07:20.299Z,16.60
2018-07-31T04:08:20.317Z,16.30
2018-07-31T04:09:20.336Z,15.60
2018-07-31T04:10:20.530Z,16.00
2018-07-31T04:11:20.442Z,16.20
2018-07-31T04:12:20.582Z,16.00
2018-07-31T04:13:20.485Z,16.60
2018-07-31T04:14:20.462Z,16.60
2018-07-31T04:15:20.450Z,16.40
2018-07-31T04:16:20.462Z,15.10
2018-07-31T04:17:20.483Z,16.00
2018-07-31T04:18:20.504Z,16.20
2018-07-31T04:19:20.517Z,15.60
2018-07-31T04:20:20.537Z,15.50
2018-07-31T04:21:20.555Z,16.40
2018-07-31T04:22:20.582Z,15.60
2018-07-31T04:23:20.593Z,16.60
2018-07-31T04:24:20.615Z,16.20
2018-07-31T04:25:20.628Z,15.70
2018-07-31T04:26:20.657Z,15.10
2018-07-31T04:27:20.673Z,16.10
2018-07-31T04:28:20.686Z,15.20
2018-07-31T04:29:20.774Z,15.90
2018-07-31T04:30:20.722Z,15.60
2018-07-31T04:31:20.742Z,16.20
2018-07-31T04:32:20.770Z,16.00
2018-07-31T04:33:20.839Z,15.80
2018-07-31T04:34:20.834Z,14.70
2018-07-31T04:35:20.862Z,15.20
2018-07-31T04:36:20.865Z,15.30
2018-07-31T04:37:20.862Z,15.10
2018-07-31T04:38:20.953Z,14.80
2018-07-31T04:39:20.890Z,14.20
2018-07-31T04:40:20.909Z,15.40
2018-07-31T04:41:20.986Z,14.00
2018-07-31T04:42:21.017Z,14.90
2018-07-31T04:43:20.963Z,14.30
2018-07-31T04:44:20.979Z,15.10
2018-07-31T04:45:21.066Z,14.40
2018-07-31T04:46:21.090Z,14.20
2018-07-31T04:47:21.929Z,14.90
2018-07-31T04:48:21.452Z,13.60
2018-07-31T04:49:21.336Z,15.00
2018-07-31T04:50:21.129Z,13.10
2018-07-31T04:51:21.121Z,14.10
2018-07-31T04:52:21.157Z,13.30
2018-07-31T04:53:21.143Z,14.00
2018-07-31T04:54:22.541Z,13.30
2018-07-31T04:55:21.180Z,13.80
2018-07-31T04:56:21.260Z,13.80
2018-07-31T04:57:21.220Z,13.50
2018-07-31T04:58:21.296Z,13.40
2018-07-31T04:59:21.256Z,13.60
2018-07-31T05:00:21.274Z,13.50
2018-07-31T05:01:21.294Z,13.30
2018-07-31T05:03:21.333Z,13.30
2018-07-31T05:04:21.364Z,13.90
2018-07-31T05:05:21.366Z,13.60
2018-07-31T05:06:21.389Z,13.30
2018-07-31T05:07:21.541Z,12.90
2018-07-31T05:08:21.421Z,13.30
2018-07-31T05:09:21.447Z,13.30
2018-07-31T05:10:21.456Z,13.20
2018-07-31T05:13:21.514Z,12.90
2018-07-31T05:14:21.676Z,12.90
2018-07-31T05:15:21.551Z,12.90
2018-07-31T05:16:21.593Z,13.10
2018-07-31T05:17:21.670Z,12.40
2018-07-31T05:18:21.832Z,12.20
2018-07-31T05:19:21.702Z,12.90
2018-07-31T05:20:21.659Z,12.90
2018-07-31T05:21:21.755Z,11.90
2018-07-31T05:22:21.680Z,12.00
2018-07-31T05:23:21.730Z,11.60
2018-07-31T05:24:22.492Z,12.10
2018-07-31T05:25:21.799Z,12.30
2018-07-31T05:26:21.761Z,12.30
2018-07-31T05:27:21.778Z,11.80
2018-07-31T05:28:21.794Z,12.20
2018-07-31T05:29:21.821Z,11.90
2018-07-31T05:30:21.832Z,11.70
2018-07-31T05:31:21.921Z,10.90
2018-07-31T05:32:21.975Z,11.10
2018-07-31T05:33:21.888Z,11.40
2018-07-31T05:34:21.904Z,11.70
2018-07-31T05:35:21.949Z,11.40
2018-07-31T05:36:22.170Z,11.10
2018-07-31T05:37:21.978Z,10.90
2018-07-31T05:38:22.015Z,11.00
2018-07-31T05:39:22.029Z,11.10
2018-07-31T05:40:22.095Z,11.20
2018-07-31T05:41:22.047Z,11.90
2018-07-31T05:42:22.367Z,10.60
2018-07-31T05:43:22.092Z,11.00
2018-07-31T05:44:22.088Z,11.30
2018-07-31T05:45:22.113Z,11.20
2018-07-31T05:46:22.124Z,11.60
2018-07-31T05:47:22.145Z,10.80
2018-07-31T05:48:22.160Z,10.80
2018-07-31T05:49:22.177Z,10.40
2018-07-31T05:50:22.200Z,10.80
2018-07-31T05:51:22.524Z,11.20
2018-07-31T05:52:22.244Z,11.00
2018-07-31T05:53:22.355Z,11.10
2018-07-31T05:55:22.398Z,11.60
2018-07-31T05:56:22.321Z,11.00
2018-07-31T05:57:22.398Z,10.70
2018-07-31T05:58:22.720Z,11.00
2018-07-31T05:59:22.464Z,11.40
2018-07-31T06:00:22.480Z,11.20
2018-07-31T06:01:22.464Z,10.70
2018-07-31T06:02:22.427Z,10.10
2018-07-31T06:03:23.233Z,11.00
2018-07-31T06:04:22.556Z,11.10
2018-07-31T06:05:22.497Z,11.40
2018-07-31T06:06:22.496Z,10.50
2018-07-31T06:07:22.518Z,10.90
2018-07-31T06:08:22.618Z,10.30
2018-07-31T06:09:22.820Z,11.30
2018-07-31T06:10:22.941Z,10.40
2018-07-31T06:11:23.080Z,11.50
2018-07-31T06:12:23.647Z,11.60
2018-07-31T06:13:22.638Z,11.70
2018-07-31T06:14:22.748Z,14.90
2018-07-31T06:15:23.211Z,15.70
2018-07-31T06:17:22.935Z,11.90
2018-07-31T06:18:22.773Z,12.00
2018-07-31T06:19:23.206Z,11.80
2018-07-31T06:20:23.454Z,11.40
2018-07-31T06:21:22.983Z,11.40
2018-07-31T06:22:23.259Z,11.00
2018-07-31T06:23:22.964Z,10.80
2018-07-31T06:24:23.295Z,12.00
2018-07-31T06:26:22.884Z,12.00
2018-07-31T06:27:22.966Z,11.10
2018-07-31T06:28:22.954Z,10.90
2018-07-31T06:29:22.993Z,12.10
2018-07-31T06:30:22.950Z,10.70
2018-07-31T06:31:23.000Z,11.90
2018-07-31T06:32:22.987Z,12.30
2018-07-31T06:33:23.668Z,11.20
2018-07-31T06:34:23.090Z,11.00
2018-07-31T06:35:23.200Z,11.00
2018-07-31T06:36:23.128Z,9.90
2018-07-31T06:37:23.148Z,11.00
2018-07-31T06:38:23.104Z,9.60
2018-07-31T06:39:23.911Z,9.50
2018-07-31T06:40:23.191Z,9.70
2018-07-31T06:41:23.653Z,10.40
2018-07-31T06:42:23.277Z,10.80
2018-07-31T06:43:23.355Z,11.40
2018-07-31T06:44:23.220Z,12.00
2018-07-31T06:45:23.238Z,10.80
2018-07-31T06:46:24.090Z,10.90
2018-07-31T06:47:24.078Z,10.30
2018-07-31T06:48:23.310Z,10.80
2018-07-31T06:49:23.388Z,10.60
2018-07-31T06:50:24.050Z,10.20
2018-07-31T06:51:23.983Z,10.60
2018-07-31T06:53:23.402Z,10.30
2018-07-31T06:54:24.417Z,9.90
2018-07-31T06:56:23.714Z,9.90
2018-07-31T06:57:23.512Z,9.80
2018-07-31T06:58:24.690Z,9.60
2018-07-31T06:59:24.194Z,9.60
2018-07-31T07:00:23.642Z,9.90
2018-07-31T07:01:23.546Z,9.40
2018-07-31T07:02:23.567Z,9.10
2018-07-31T07:03:23.588Z,9.20
2018-07-31T07:04:23.618Z,9.50
2018-07-31T07:05:23.625Z,9.40
2018-07-31T07:06:23.698Z,9.60
2018-07-31T07:07:23.669Z,10.00
2018-07-31T07:08:23.689Z,9.30
2018-07-31T07:09:24.375Z,9.80
2018-07-31T07:10:23.729Z,9.60
2018-07-31T07:11:23.746Z,9.10
2018-07-31T07:12:23.763Z,9.90
2018-07-31T07:13:23.835Z,8.80
2018-07-31T07:14:23.814Z,9.20
2018-07-31T07:15:23.883Z,8.40
2018-07-31T07:16:23.860Z,9.10
2018-07-31T07:17:23.865Z,8.70
2018-07-31T07:18:23.898Z,8.50
2018-07-31T07:19:23.976Z,8.60
2018-07-31T07:20:23.961Z,8.30
2018-07-31T07:21:23.980Z,8.60
2018-07-31T07:22:23.992Z,8.70
2018-07-31T07:23:24.004Z,8.30
2018-07-31T07:24:24.068Z,8.50
2018-07-31T07:25:24.028Z,7.70
2018-07-31T07:26:24.059Z,8.00
2018-07-31T07:27:24.088Z,7.80
2018-07-31T07:28:24.099Z,7.80
2018-07-31T07:29:24.116Z,8.60
2018-07-31T07:30:24.151Z,9.10
2018-07-31T07:31:24.154Z,8.00
2018-07-31T07:32:24.203Z,8.40
2018-07-31T07:33:25.553Z,8.10
2018-07-31T07:34:24.237Z,8.30
2018-07-31T07:35:24.243Z,7.90
2018-07-31T07:36:24.260Z,7.60
2018-07-31T07:37:24.303Z,13.10
2018-07-31T07:38:24.308Z,6.40
2018-07-31T07:39:24.316Z,7.50
2018-07-31T07:40:24.341Z,10.70
2018-07-31T07:41:24.382Z,8.00
2018-07-31T07:42:24.373Z,9.00
2018-07-31T07:43:24.408Z,8.70
2018-07-31T07:44:24.433Z,7.60
2018-07-31T07:45:24.443Z,6.80
2018-07-31T07:46:24.467Z,6.50
2018-07-31T07:47:24.482Z,7.00
2018-07-31T07:48:24.542Z,6.90
2018-07-31T07:49:24.556Z,6.40
2018-07-31T07:50:24.536Z,6.40
2018-07-31T07:51:24.570Z,6.50
2018-07-31T07:52:24.593Z,6.60
2018-07-31T07:53:24.601Z,6.70
2018-07-31T07:54:24.719Z,6.70
2018-07-31T07:55:24.639Z,6.70
2018-07-31T07:56:24.668Z,5.90
2018-07-31T07:57:24.678Z,6.20
2018-07-31T07:58:24.711Z,5.70
2018-07-31T07:59:24.741Z,5.80
2018-07-31T08:00:24.741Z,5.70
2018-07-31T08:01:24.777Z,5.70
2018-07-31T08:02:25.135Z,4.90
2018-07-31T08:03:24.804Z,5.50
2018-07-31T08:04:24.925Z,5.20
2018-07-31T08:05:24.846Z,5.40
2018-07-31T08:06:24.866Z,5.40
2018-07-31T08:07:24.940Z,5.80
2018-07-31T08:08:24.909Z,5.10
2018-07-31T08:09:24.939Z,5.30
2018-07-31T08:10:24.995Z,5.00
2018-07-31T08:11:24.977Z,5.20
2018-07-31T08:12:24.995Z,4.20
2018-07-31T08:13:25.013Z,5.50
2018-07-31T08:14:25.055Z,4.90
2018-07-31T08:15:25.055Z,5.60
2018-07-31T08:16:25.075Z,5.30
2018-07-31T08:17:25.100Z,5.30
2018-07-31T08:18:25.118Z,7.20
2018-07-31T08:19:25.147Z,5.60
2018-07-31T08:20:25.185Z,5.70
2018-07-31T08:21:25.190Z,5.10
2018-07-31T08:22:25.200Z,5.10
2018-07-31T08:23:25.290Z,4.50
2018-07-31T08:24:25.709Z,5.20
2018-07-31T08:25:25.265Z,4.90
2018-07-31T08:26:25.438Z,4.70
2018-07-31T08:27:25.313Z,4.70
2018-07-31T08:28:25.346Z,4.90
2018-07-31T08:29:25.350Z,4.40
2018-07-31T08:30:25.975Z,4.80
2018-07-31T08:32:26.445Z,5.10
2018-07-31T08:33:26.307Z,4.70
2018-07-31T08:34:25.556Z,4.70
2018-07-31T08:35:25.476Z,4.50
2018-07-31T08:36:25.797Z,4.40
2018-07-31T08:37:25.666Z,3.80
2018-07-31T08:38:25.563Z,4.40
2018-07-31T08:39:25.559Z,4.60
2018-07-31T08:41:25.646Z,4.70
2018-07-31T08:42:25.636Z,4.30
2018-07-31T08:43:25.811Z,4.50
2018-07-31T08:44:25.767Z,4.50
2018-07-31T08:45:25.763Z,4.30
2018-07-31T08:46:25.709Z,4.30
2018-07-31T08:47:25.728Z,5.20
2018-07-31T08:48:25.746Z,4.90
2018-07-31T08:49:26.053Z,4.10
2018-07-31T08:50:25.816Z,4.00
2018-07-31T08:51:25.930Z,4.20
2018-07-31T08:52:26.328Z,4.20
2018-07-31T08:53:26.312Z,4.00
2018-07-31T08:54:25.868Z,4.80
2018-07-31T08:55:25.896Z,97.40
2018-07-31T08:56:27.120Z,4.70
2018-07-31T08:57:25.933Z,3.90
2018-07-31T08:58:26.154Z,10.80
2018-07-31T08:59:26.044Z,6.90
2018-07-31T09:00:26.416Z,5.50
2018-07-31T09:01:26.457Z,5.30
2018-07-31T09:02:26.041Z,4.80
2018-07-31T09:03:26.062Z,4.10
2018-07-31T09:04:26.228Z,4.40
2018-07-31T09:05:26.275Z,4.50
2018-07-31T09:06:26.152Z,4.50
2018-07-31T09:07:26.152Z,4.00
2018-07-31T09:08:26.245Z,3.70
2018-07-31T09:09:26.285Z,3.90
2018-07-31T09:10:26.304Z,4.20
2018-07-31T09:11:26.239Z,3.90
2018-07-31T09:12:26.285Z,4.00
2018-07-31T09:13:26.277Z,4.10
2018-07-31T09:14:26.305Z,3.90
2018-07-31T09:15:26.391Z,3.80
2018-07-31T09:16:26.377Z,3.60
2018-07-31T09:17:26.697Z,3.80
2018-07-31T09:18:26.390Z,4.60
2018-07-31T09:19:26.460Z,4.10
2018-07-31T09:20:27.137Z,3.60
2018-07-31T09:21:27.180Z,3.90
2018-07-31T09:22:26.487Z,3.80
2018-07-31T09:23:26.523Z,4.00
2018-07-31T09:24:26.590Z,3.40
2018-07-31T09:25:26.572Z,3.40
2018-07-31T09:26:26.689Z,3.60
2018-07-31T09:27:26.580Z,3.40
2018-07-31T09:28:26.622Z,3.10
2018-07-31T09:29:26.766Z,3.00
2018-07-31T09:30:26.768Z,3.10
2018-07-31T09:31:26.682Z,3.30
2018-07-31T09:32:26.695Z,3.00
2018-07-31T09:33:26.722Z,3.50
2018-07-31T09:34:27.091Z,3.20
2018-07-31T09:36:27.370Z,3.50
2018-07-31T09:37:26.805Z,3.00
2018-07-31T09:38:27.532Z,3.20
2018-07-31T09:39:26.945Z,3.00
2018-07-31T09:40:27.011Z,3.20
2018-07-31T09:41:27.941Z,3.00
2018-07-31T09:42:26.915Z,3.20
2018-07-31T09:43:26.957Z,3.00
2018-07-31T09:44:26.958Z,2.80
2018-07-31T09:45:26.979Z,2.70
2018-07-31T09:47:27.026Z,2.60
2018-07-31T09:48:27.099Z,2.70
2018-07-31T09:49:27.140Z,2.70
2018-07-31T09:50:27.086Z,2.90
2018-07-31T09:51:27.156Z,2.70
2018-07-31T09:52:27.404Z,3.20
2018-07-31T09:53:27.151Z,2.90
2018-07-31T09:54:27.171Z,2.70
2018-07-31T09:55:27.543Z,3.30
2018-07-31T09:56:27.218Z,2.70
2018-07-31T09:57:27.240Z,2.60
2018-07-31T09:58:27.262Z,3.00
2018-07-31T09:59:27.388Z,2.80
2018-07-31T10:00:27.333Z,2.70
2018-07-31T10:01:27.342Z,3.00
2018-07-31T10:03:27.443Z,2.70
2018-07-31T10:04:27.394Z,2.80
2018-07-31T10:05:27.459Z,2.90
2018-07-31T10:06:27.451Z,2.70
2018-07-31T10:07:27.512Z,2.40
2018-07-31T10:08:28.478Z,2.80
2018-07-31T10:09:27.504Z,2.50
2018-07-31T10:10:27.535Z,2.40
2018-07-31T10:11:28.187Z,2.40
2018-07-31T10:12:27.567Z,2.50
2018-07-31T10:13:27.638Z,2.30
2018-07-31T10:14:27.689Z,2.70
2018-07-31T10:15:27.656Z,2.70
2018-07-31T10:16:27.878Z,2.50
2018-07-31T10:17:27.694Z,2.60
2018-07-31T10:18:27.707Z,2.40
2018-07-31T10:20:27.739Z,2.40
2018-07-31T10:21:27.769Z,2.50
2018-07-31T10:22:27.806Z,2.30
2018-07-31T10:23:27.804Z,2.20
2018-07-31T10:24:28.375Z,2.30
2018-07-31T10:25:27.903Z,2.30
2018-07-31T10:26:28.340Z,2.20
2018-07-31T10:27:27.909Z,2.30
2018-07-31T10:28:27.986Z,2.30
2018-07-31T10:29:27.940Z,2.00
2018-07-31T10:30:27.962Z,2.10
2018-07-31T10:31:27.985Z,2.20
2018-07-31T10:32:28.005Z,2.10
2018-07-31T10:33:28.033Z,2.80
2018-07-31T10:34:28.050Z,2.20
2018-07-31T10:35:28.084Z,2.00
2018-07-31T10:36:28.093Z,2.20
2018-07-31T10:37:28.140Z,2.10
2018-07-31T10:38:28.141Z,2.10
2018-07-31T10:39:28.161Z,2.20
2018-07-31T10:40:28.183Z,2.20
2018-07-31T10:41:28.229Z,2.20
2018-07-31T10:42:28.231Z,2.10
2018-07-31T10:43:28.249Z,2.10
2018-07-31T10:44:28.280Z,2.30
2018-07-31T10:45:28.298Z,2.30
2018-07-31T10:46:28.318Z,2.20
2018-07-31T10:47:28.342Z,2.10
2018-07-31T10:48:28.901Z,2.40
2018-07-31T10:49:29.912Z,2.60
2018-07-31T10:50:28.430Z,2.10
2018-07-31T10:51:28.434Z,2.30
2018-07-31T10:52:28.451Z,2.60
2018-07-31T10:53:28.478Z,2.20
2018-07-31T10:54:28.498Z,2.30
2018-07-31T10:55:28.518Z,1.90
2018-07-31T10:56:28.545Z,2.60
2018-07-31T10:57:28.570Z,2.50
2018-07-31T10:58:28.680Z,2.10
2018-07-31T10:59:28.616Z,2.00
2018-07-31T11:00:28.683Z,2.00
2018-07-31T11:01:28.811Z,2.10
2018-07-31T11:02:28.676Z,2.10
2018-07-31T11:03:28.695Z,2.10
2018-07-31T11:04:28.718Z,1.80
2018-07-31T11:05:28.743Z,2.10
2018-07-31T11:06:28.774Z,3.00
2018-07-31T11:07:30.371Z,2.20
2018-07-31T11:08:28.806Z,2.20
2018-07-31T11:09:28.826Z,2.30
2018-07-31T11:10:28.916Z,2.10
2018-07-31T11:11:28.868Z,2.20
2018-07-31T11:12:28.917Z,2.50
2018-07-31T11:13:29.168Z,2.80
2018-07-31T11:14:28.949Z,2.30
2018-07-31T11:15:29.032Z,2.60
2018-07-31T11:16:29.876Z,2.60
2018-07-31T11:17:30.059Z,2.40
2018-07-31T11:18:29.028Z,2.20
2018-07-31T11:19:29.080Z,2.20
2018-07-31T11:20:29.287Z,2.70
2018-07-31T11:23:29.507Z,2.30
2018-07-31T11:24:29.337Z,2.20
2018-07-31T11:25:29.246Z,2.60
2018-07-31T11:26:29.350Z,2.20
2018-07-31T11:27:29.576Z,2.60
2018-07-31T11:28:29.256Z,2.70
2018-07-31T11:30:29.442Z,2.70
2018-07-31T11:31:29.311Z,2.40
2018-07-31T11:32:30.291Z,2.70
2018-07-31T11:33:29.353Z,2.60
2018-07-31T11:34:29.458Z,2.60
2018-07-31T11:35:29.578Z,2.90
2018-07-31T11:36:29.443Z,2.60
2018-07-31T11:38:29.652Z,2.60
2018-07-31T11:39:31.719Z,2.70
2018-07-31T11:40:29.863Z,3.10
2018-07-31T11:41:29.536Z,2.80
2018-07-31T11:42:29.555Z,2.80
2018-07-31T11:43:30.186Z,2.70
2018-07-31T11:44:30.453Z,2.90
2018-07-31T11:45:30.111Z,2.70
2018-07-31T11:46:29.640Z,3.00
2018-07-31T11:47:31.058Z,2.80
2018-07-31T11:48:29.702Z,3.10
2018-07-31T11:49:29.859Z,2.20
2018-07-31T11:50:29.734Z,2.50
2018-07-31T11:51:29.797Z,2.70
2018-07-31T11:52:29.774Z,2.90
2018-07-31T11:53:29.954Z,2.70
2018-07-31T11:54:30.633Z,2.30
2018-07-31T11:55:29.879Z,2.80
2018-07-31T11:56:29.860Z,2.70
2018-07-31T11:57:29.878Z,2.70
2018-07-31T11:58:29.900Z,2.90
2018-07-31T11:59:30.026Z,2.40
2018-07-31T12:00:29.978Z,2.30
2018-07-31T12:01:29.989Z,2.70
2018-07-31T12:02:29.993Z,2.60
2018-07-31T12:03:30.013Z,2.70
2018-07-31T12:04:30.040Z,2.50
2018-07-31T12:05:30.062Z,2.50
2018-07-31T12:06:30.090Z,2.90
2018-07-31T12:07:30.128Z,2.30
2018-07-31T12:08:30.156Z,2.40
2018-07-31T12:09:30.268Z,2.30
2018-07-31T12:10:30.277Z,2.30
2018-07-31T12:11:30.245Z,2.50
2018-07-31T12:12:30.221Z,2.70
2018-07-31T12:13:30.293Z,2.50
2018-07-31T12:14:30.268Z,2.60
2018-07-31T12:15:30.288Z,2.50
2018-07-31T12:16:30.308Z,2.50
2018-07-31T12:17:30.329Z,2.50
2018-07-31T12:18:30.351Z,2.40
2018-07-31T12:19:30.376Z,2.50
2018-07-31T12:20:30.397Z,2.60
2018-07-31T12:21:30.417Z,2.40
2018-07-31T12:22:30.441Z,2.70
2018-07-31T12:23:30.467Z,2.30
2018-07-31T12:24:30.498Z,2.40
2018-07-31T12:25:30.519Z,2.20
2018-07-31T12:26:30.535Z,2.50
2018-07-31T12:27:30.663Z,2.20
2018-07-31T12:28:30.614Z,2.50
2018-07-31T12:29:30.609Z,2.40
2018-07-31T12:30:30.642Z,2.60
2018-07-31T12:31:30.646Z,2.40
2018-07-31T12:32:30.704Z,2.40
2018-07-31T12:33:30.740Z,2.40
2018-07-31T12:34:30.712Z,2.40
2018-07-31T12:35:30.920Z,2.80
2018-07-31T12:36:30.760Z,2.90
2018-07-31T12:37:31.031Z,2.70
2018-07-31T12:38:30.815Z,2.40
2018-07-31T12:39:30.818Z,2.30
2018-07-31T12:40:30.843Z,2.50
2018-07-31T12:41:31.130Z,2.30
2018-07-31T12:42:30.890Z,2.50
2018-07-31T12:43:31.122Z,2.30
2018-07-31T12:44:30.930Z,2.50
2018-07-31T12:45:30.957Z,2.40
2018-07-31T12:46:30.976Z,2.30
2018-07-31T12:47:31.001Z,2.40
2018-07-31T12:48:31.054Z,2.30
2018-07-31T12:49:31.565Z,1.90
2018-07-31T12:50:31.704Z,2.70
2018-07-31T12:52:31.116Z,2.30
2018-07-31T12:53:31.145Z,2.30
2018-07-31T12:54:31.159Z,2.60
2018-07-31T12:55:31.269Z,2.40
2018-07-31T12:56:31.204Z,2.60
2018-07-31T12:57:31.244Z,2.40
2018-07-31T12:58:31.253Z,2.20
2018-07-31T12:59:31.980Z,2.10
2018-07-31T13:00:31.299Z,2.20
2018-07-31T13:01:31.330Z,2.40
2018-07-31T13:02:31.342Z,2.30
2018-07-31T13:03:32.023Z,2.30
2018-07-31T13:04:31.390Z,2.10
2018-07-31T13:05:31.420Z,2.20
2018-07-31T13:06:31.444Z,3.00
2018-07-31T13:07:31.469Z,2.40
2018-07-31T13:08:31.632Z,2.50
2018-07-31T13:09:31.514Z,2.80
2018-07-31T13:10:31.616Z,2.50
2018-07-31T13:11:31.561Z,2.70
2018-07-31T13:12:33.423Z,2.50
2018-07-31T13:13:31.925Z,2.60
2018-07-31T13:14:32.656Z,3.10
2018-07-31T13:15:31.766Z,2.70
2018-07-31T13:16:31.693Z,2.60
2018-07-31T13:17:31.764Z,2.40
2018-07-31T13:18:32.105Z,2.50
2018-07-31T13:19:32.153Z,2.50
2018-07-31T13:20:32.127Z,2.50
2018-07-31T13:21:31.829Z,2.60
2018-07-31T13:22:31.856Z,3.00
2018-07-31T13:23:31.882Z,3.30
2018-07-31T13:24:31.917Z,3.10
2018-07-31T13:25:31.948Z,3.50
2018-07-31T13:26:31.963Z,3.00
2018-07-31T13:27:32.044Z,2.80
2018-07-31T13:28:32.023Z,2.40
2018-07-31T13:29:32.057Z,2.30
2018-07-31T13:30:32.093Z,2.30